sensor_id;sensor_type;location;lat;lon;timestamp;P1;durP1;ratioP1;P2;durP2;ratioP2
2099;SDS011;1055;48.854;9.302;2023-05-10T00:00:07;5.77;;;1.83;;
2099;SDS011;1055;48.854;9.302;2023-05-10T00:02:34;9.67;;;2.20;;
2099;SDS011;1055;48.854;9.302;2023-05-10T00:05:00;5.57;;;2.30;;
2099;SDS011;1055;48.854;9.302;2023-05-10T00:07:26;5.50;;;1.70;;
2099;SDS011;1055;48.854;9.302;2023-05-10T00:09:51;5.33;;;1.53;;
2099;SDS011;1055;48.854;9.302;2023-05-10T00:12:17;6.30;;;1.70;;
2099;SDS011;1055;48.854;9.302;2023-05-10T00:14:42;8.10;;;2.10;;
2099;SDS011;1055;48.854;9.302;2023-05-10T00:17:08;4.37;;;0.93;;
2099;SDS011;1055;48.854;9.302;2023-05-10T00:19:34;4.73;;;0.90;;
2099;SDS011;1055;48.854;9.302;2023-05-10T00:21:59;6.93;;;0.87;;
2099;SDS011;1055;48.854;9.302;2023-05-10T00:24:25;4.37;;;0.80;;
2099;SDS011;1055;48.854;9.302;2023-05-10T00:26:50;4.50;;;0.60;;
2099;SDS011;1055;48.854;9.302;2023-05-10T00:29:16;6.00;;;0.60;;
2099;SDS011;1055;48.854;9.302;2023-05-10T00:31:41;4.20;;;0.60;;
2099;SDS011;1055;48.854;9.302;2023-05-10T00:34:07;4.93;;;0.53;;
2099;SDS011;1055;48.854;9.302;2023-05-10T00:36:33;9.70;;;0.80;;
2099;SDS011;1055;48.854;9.302;2023-05-10T00:38:58;4.67;;;0.50;;
2099;SDS011;1055;48.854;9.302;2023-05-10T00:41:24;4.20;;;0.60;;
2099;SDS011;1055;48.854;9.302;2023-05-10T00:43:50;4.30;;;0.80;;
2099;SDS011;1055;48.854;9.302;2023-05-10T00:46:15;4.03;;;0.50;;
2099;SDS011;1055;48.854;9.302;2023-05-10T00:48:42;4.00;;;0.40;;
2099;SDS011;1055;48.854;9.302;2023-05-10T00:51:08;4.00;;;0.50;;
2099;SDS011;1055;48.854;9.302;2023-05-10T00:53:34;5.50;;;0.70;;
2099;SDS011;1055;48.854;9.302;2023-05-10T00:56:00;6.77;;;0.60;;
2099;SDS011;1055;48.854;9.302;2023-05-10T00:58:28;4.40;;;0.80;;
2099;SDS011;1055;48.854;9.302;2023-05-10T01:00:54;7.20;;;0.70;;
2099;SDS011;1055;48.854;9.302;2023-05-10T01:03:21;4.30;;;0.70;;
2099;SDS011;1055;48.854;9.302;2023-05-10T01:05:46;4.30;;;0.50;;
2099;SDS011;1055;48.854;9.302;2023-05-10T01:08:12;4.27;;;0.87;;
2099;SDS011;1055;48.854;9.302;2023-05-10T01:10:38;4.20;;;0.73;;
2099;SDS011;1055;48.854;9.302;2023-05-10T01:13:04;4.37;;;0.70;;
2099;SDS011;1055;48.854;9.302;2023-05-10T01:15:30;4.30;;;0.80;;
2099;SDS011;1055;48.854;9.302;2023-05-10T01:17:56;4.30;;;0.67;;
2099;SDS011;1055;48.854;9.302;2023-05-10T01:20:22;4.30;;;0.73;;
2099;SDS011;1055;48.854;9.302;2023-05-10T01:26:48;5.03;;;0.80;;
2099;SDS011;1055;48.854;9.302;2023-05-10T01:34:20;4.50;;;0.90;;
2099;SDS011;1055;48.854;9.302;2023-05-10T01:36:57;4.33;;;0.80;;
2099;SDS011;1055;48.854;9.302;2023-05-10T01:39:32;4.40;;;1.00;;
2099;SDS011;1055;48.854;9.302;2023-05-10T01:42:09;4.60;;;1.23;;
2099;SDS011;1055;48.854;9.302;2023-05-10T01:47:12;4.73;;;1.10;;
2099;SDS011;1055;48.854;9.302;2023-05-10T01:49:43;6.10;;;1.67;;
2099;SDS011;1055;48.854;9.302;2023-05-10T01:52:14;4.70;;;1.40;;
2099;SDS011;1055;48.854;9.302;2023-05-10T01:54:53;5.57;;;1.40;;
2099;SDS011;1055;48.854;9.302;2023-05-10T01:57:25;5.20;;;1.50;;
2099;SDS011;1055;48.854;9.302;2023-05-10T01:59:52;4.97;;;1.37;;
2099;SDS011;1055;48.854;9.302;2023-05-10T02:02:20;5.10;;;1.40;;
2099;SDS011;1055;48.854;9.302;2023-05-10T02:04:47;4.80;;;1.53;;
2099;SDS011;1055;48.854;9.302;2023-05-10T02:07:15;4.80;;;1.30;;
2099;SDS011;1055;48.854;9.302;2023-05-10T02:09:42;6.80;;;2.33;;
2099;SDS011;1055;48.854;9.302;2023-05-10T02:12:12;5.83;;;2.07;;
2099;SDS011;1055;48.854;9.302;2023-05-10T02:14:39;4.67;;;1.30;;
2099;SDS011;1055;48.854;9.302;2023-05-10T02:17:06;5.30;;;1.87;;
2099;SDS011;1055;48.854;9.302;2023-05-10T02:19:34;5.60;;;1.83;;
2099;SDS011;1055;48.854;9.302;2023-05-10T02:22:02;5.60;;;1.80;;
2099;SDS011;1055;48.854;9.302;2023-05-10T02:24:28;6.80;;;1.57;;
2099;SDS011;1055;48.854;9.302;2023-05-10T02:26:55;5.07;;;1.57;;
2099;SDS011;1055;48.854;9.302;2023-05-10T02:29:22;5.13;;;1.50;;
2099;SDS011;1055;48.854;9.302;2023-05-10T02:31:51;4.90;;;1.40;;
2099;SDS011;1055;48.854;9.302;2023-05-10T02:34:19;5.03;;;1.57;;
2099;SDS011;1055;48.854;9.302;2023-05-10T02:36:46;4.90;;;1.43;;
2099;SDS011;1055;48.854;9.302;2023-05-10T02:39:12;5.33;;;1.50;;
2099;SDS011;1055;48.854;9.302;2023-05-10T02:41:40;6.23;;;2.47;;
2099;SDS011;1055;48.854;9.302;2023-05-10T02:44:07;5.60;;;2.40;;
2099;SDS011;1055;48.854;9.302;2023-05-10T02:46:34;5.10;;;2.20;;
2099;SDS011;1055;48.854;9.302;2023-05-10T02:49:02;6.30;;;3.20;;
2099;SDS011;1055;48.854;9.302;2023-05-10T02:51:30;5.50;;;2.60;;
2099;SDS011;1055;48.854;9.302;2023-05-10T02:54:00;5.73;;;2.50;;
2099;SDS011;1055;48.854;9.302;2023-05-10T02:56:33;5.43;;;2.63;;
2099;SDS011;1055;48.854;9.302;2023-05-10T02:59:01;5.10;;;2.40;;
2099;SDS011;1055;48.854;9.302;2023-05-10T03:01:26;6.40;;;1.97;;
2099;SDS011;1055;48.854;9.302;2023-05-10T03:03:52;5.10;;;2.37;;
2099;SDS011;1055;48.854;9.302;2023-05-10T03:06:18;5.37;;;2.93;;
2099;SDS011;1055;48.854;9.302;2023-05-10T03:08:44;5.30;;;2.47;;
2099;SDS011;1055;48.854;9.302;2023-05-10T03:19:56;5.00;;;1.90;;
2099;SDS011;1055;48.854;9.302;2023-05-10T03:22:25;6.60;;;1.90;;
2099;SDS011;1055;48.854;9.302;2023-05-10T03:24:55;5.73;;;1.87;;
2099;SDS011;1055;48.854;9.302;2023-05-10T03:27:23;7.33;;;2.53;;
2099;SDS011;1055;48.854;9.302;2023-05-10T03:29:51;6.20;;;2.43;;
2099;SDS011;1055;48.854;9.302;2023-05-10T03:32:18;7.10;;;3.10;;
2099;SDS011;1055;48.854;9.302;2023-05-10T03:34:43;7.57;;;2.97;;
2099;SDS011;1055;48.854;9.302;2023-05-10T03:37:09;6.63;;;3.97;;
2099;SDS011;1055;48.854;9.302;2023-05-10T03:39:35;6.17;;;3.87;;
2099;SDS011;1055;48.854;9.302;2023-05-10T03:42:00;6.37;;;3.23;;
2099;SDS011;1055;48.854;9.302;2023-05-10T03:44:26;5.60;;;2.90;;
2099;SDS011;1055;48.854;9.302;2023-05-10T03:46:52;6.00;;;3.20;;
2099;SDS011;1055;48.854;9.302;2023-05-10T03:49:17;8.57;;;4.20;;
2099;SDS011;1055;48.854;9.302;2023-05-10T03:51:43;8.13;;;4.80;;
2099;SDS011;1055;48.854;9.302;2023-05-10T03:54:08;7.60;;;4.27;;
2099;SDS011;1055;48.854;9.302;2023-05-10T03:56:34;6.70;;;3.73;;
2099;SDS011;1055;48.854;9.302;2023-05-10T03:59:00;7.87;;;4.20;;
2099;SDS011;1055;48.854;9.302;2023-05-10T04:01:25;9.87;;;5.10;;
2099;SDS011;1055;48.854;9.302;2023-05-10T04:03:51;7.27;;;4.70;;
2099;SDS011;1055;48.854;9.302;2023-05-10T04:06:17;7.17;;;4.27;;
2099;SDS011;1055;48.854;9.302;2023-05-10T04:08:42;7.13;;;4.27;;
2099;SDS011;1055;48.854;9.302;2023-05-10T04:11:11;8.30;;;4.33;;
2099;SDS011;1055;48.854;9.302;2023-05-10T04:13:38;6.73;;;3.60;;
2099;SDS011;1055;48.854;9.302;2023-05-10T04:16:03;6.43;;;3.13;;
2099;SDS011;1055;48.854;9.302;2023-05-10T04:18:30;5.60;;;2.63;;
2099;SDS011;1055;48.854;9.302;2023-05-10T04:20:56;6.73;;;2.50;;
2099;SDS011;1055;48.854;9.302;2023-05-10T04:23:21;6.37;;;2.83;;
2099;SDS011;1055;48.854;9.302;2023-05-10T04:25:47;7.50;;;2.80;;
2099;SDS011;1055;48.854;9.302;2023-05-10T04:28:13;5.83;;;2.67;;
2099;SDS011;1055;48.854;9.302;2023-05-10T04:30:38;6.00;;;3.00;;
2099;SDS011;1055;48.854;9.302;2023-05-10T04:33:05;6.10;;;2.70;;
2099;SDS011;1055;48.854;9.302;2023-05-10T04:35:30;6.40;;;2.97;;
2099;SDS011;1055;48.854;9.302;2023-05-10T04:37:56;5.90;;;2.57;;
2099;SDS011;1055;48.854;9.302;2023-05-10T04:40:22;6.10;;;3.37;;
2099;SDS011;1055;48.854;9.302;2023-05-10T04:42:47;7.57;;;3.53;;
2099;SDS011;1055;48.854;9.302;2023-05-10T04:45:13;7.83;;;2.90;;
2099;SDS011;1055;48.854;9.302;2023-05-10T04:47:41;7.50;;;3.53;;
2099;SDS011;1055;48.854;9.302;2023-05-10T04:50:07;6.63;;;3.90;;
2099;SDS011;1055;48.854;9.302;2023-05-10T04:52:33;7.80;;;4.53;;
2099;SDS011;1055;48.854;9.302;2023-05-10T04:54:58;8.57;;;3.20;;
2099;SDS011;1055;48.854;9.302;2023-05-10T04:57:24;6.03;;;3.10;;
2099;SDS011;1055;48.854;9.302;2023-05-10T04:59:50;7.10;;;2.07;;
2099;SDS011;1055;48.854;9.302;2023-05-10T05:02:16;6.23;;;2.70;;
2099;SDS011;1055;48.854;9.302;2023-05-10T05:04:42;7.77;;;2.60;;
2099;SDS011;1055;48.854;9.302;2023-05-10T05:07:07;6.03;;;2.10;;
2099;SDS011;1055;48.854;9.302;2023-05-10T05:09:33;5.70;;;2.30;;
2099;SDS011;1055;48.854;9.302;2023-05-10T05:11:59;6.00;;;2.33;;
2099;SDS011;1055;48.854;9.302;2023-05-10T05:14:25;5.50;;;2.03;;
2099;SDS011;1055;48.854;9.302;2023-05-10T05:16:51;6.00;;;2.10;;
2099;SDS011;1055;48.854;9.302;2023-05-10T05:19:17;5.50;;;2.30;;
2099;SDS011;1055;48.854;9.302;2023-05-10T05:21:43;6.47;;;2.40;;
2099;SDS011;1055;48.854;9.302;2023-05-10T05:24:09;6.97;;;2.40;;
2099;SDS011;1055;48.854;9.302;2023-05-10T05:26:35;6.00;;;2.57;;
2099;SDS011;1055;48.854;9.302;2023-05-10T05:29:01;6.23;;;2.70;;
2099;SDS011;1055;48.854;9.302;2023-05-10T05:31:27;8.30;;;3.00;;
2099;SDS011;1055;48.854;9.302;2023-05-10T05:33:53;5.50;;;2.67;;
2099;SDS011;1055;48.854;9.302;2023-05-10T05:36:20;5.27;;;2.30;;
2099;SDS011;1055;48.854;9.302;2023-05-10T05:38:46;6.40;;;2.50;;
2099;SDS011;1055;48.854;9.302;2023-05-10T05:41:12;5.60;;;2.27;;
2099;SDS011;1055;48.854;9.302;2023-05-10T05:43:37;5.90;;;2.40;;
2099;SDS011;1055;48.854;9.302;2023-05-10T05:46:03;6.53;;;2.37;;
2099;SDS011;1055;48.854;9.302;2023-05-10T05:48:31;5.67;;;2.10;;
2099;SDS011;1055;48.854;9.302;2023-05-10T05:50:57;8.50;;;2.00;;
2099;SDS011;1055;48.854;9.302;2023-05-10T05:53:23;7.33;;;2.20;;
2099;SDS011;1055;48.854;9.302;2023-05-10T05:55:53;12.80;;;2.87;;
2099;SDS011;1055;48.854;9.302;2023-05-10T05:58:19;5.70;;;2.50;;
2099;SDS011;1055;48.854;9.302;2023-05-10T06:00:45;5.90;;;2.47;;
2099;SDS011;1055;48.854;9.302;2023-05-10T06:03:11;6.77;;;3.47;;
2099;SDS011;1055;48.854;9.302;2023-05-10T06:05:37;5.90;;;2.60;;
2099;SDS011;1055;48.854;9.302;2023-05-10T06:08:03;6.70;;;2.40;;
2099;SDS011;1055;48.854;9.302;2023-05-10T06:10:28;6.10;;;2.97;;
2099;SDS011;1055;48.854;9.302;2023-05-10T06:12:55;6.20;;;3.10;;
2099;SDS011;1055;48.854;9.302;2023-05-10T06:15:21;5.73;;;2.70;;
2099;SDS011;1055;48.854;9.302;2023-05-10T06:17:47;6.43;;;2.80;;
2099;SDS011;1055;48.854;9.302;2023-05-10T06:20:14;8.20;;;2.97;;
2099;SDS011;1055;48.854;9.302;2023-05-10T06:22:41;5.80;;;2.60;;
2099;SDS011;1055;48.854;9.302;2023-05-10T06:25:07;6.47;;;3.13;;
2099;SDS011;1055;48.854;9.302;2023-05-10T06:27:33;6.30;;;3.20;;
2099;SDS011;1055;48.854;9.302;2023-05-10T06:29:59;7.13;;;3.10;;
2099;SDS011;1055;48.854;9.302;2023-05-10T06:32:25;7.20;;;3.07;;
2099;SDS011;1055;48.854;9.302;2023-05-10T06:34:50;10.97;;;3.10;;
2099;SDS011;1055;48.854;9.302;2023-05-10T06:37:16;6.87;;;3.00;;
2099;SDS011;1055;48.854;9.302;2023-05-10T06:39:42;6.53;;;3.20;;
2099;SDS011;1055;48.854;9.302;2023-05-10T06:42:07;6.50;;;3.27;;
2099;SDS011;1055;48.854;9.302;2023-05-10T06:44:33;8.23;;;3.30;;
2099;SDS011;1055;48.854;9.302;2023-05-10T06:46:59;8.00;;;3.60;;
2099;SDS011;1055;48.854;9.302;2023-05-10T06:49:24;8.93;;;3.50;;
2099;SDS011;1055;48.854;9.302;2023-05-10T06:51:50;6.03;;;2.90;;
2099;SDS011;1055;48.854;9.302;2023-05-10T06:54:15;6.40;;;3.00;;
2099;SDS011;1055;48.854;9.302;2023-05-10T06:56:41;5.93;;;2.90;;
2099;SDS011;1055;48.854;9.302;2023-05-10T06:59:07;5.60;;;3.00;;
2099;SDS011;1055;48.854;9.302;2023-05-10T07:01:32;8.27;;;2.50;;
2099;SDS011;1055;48.854;9.302;2023-05-10T07:03:58;5.50;;;2.57;;
2099;SDS011;1055;48.854;9.302;2023-05-10T07:06:24;7.40;;;3.40;;
2099;SDS011;1055;48.854;9.302;2023-05-10T07:08:49;5.87;;;2.60;;
2099;SDS011;1055;48.854;9.302;2023-05-10T07:11:15;6.00;;;2.50;;
2099;SDS011;1055;48.854;9.302;2023-05-10T07:13:41;5.67;;;2.73;;
2099;SDS011;1055;48.854;9.302;2023-05-10T07:16:09;5.50;;;2.70;;
2099;SDS011;1055;48.854;9.302;2023-05-10T07:18:35;6.93;;;2.30;;
2099;SDS011;1055;48.854;9.302;2023-05-10T07:21:01;8.63;;;1.90;;
2099;SDS011;1055;48.854;9.302;2023-05-10T07:23:27;4.90;;;1.93;;
2099;SDS011;1055;48.854;9.302;2023-05-10T07:25:53;5.10;;;1.80;;
2099;SDS011;1055;48.854;9.302;2023-05-10T07:28:19;5.30;;;1.77;;
2099;SDS011;1055;48.854;9.302;2023-05-10T07:30:45;5.10;;;1.80;;
2099;SDS011;1055;48.854;9.302;2023-05-10T07:33:12;5.00;;;1.70;;
2099;SDS011;1055;48.854;9.302;2023-05-10T07:35:38;6.83;;;2.13;;
2099;SDS011;1055;48.854;9.302;2023-05-10T07:38:04;8.03;;;2.47;;
2099;SDS011;1055;48.854;9.302;2023-05-10T07:40:30;5.90;;;2.00;;
2099;SDS011;1055;48.854;9.302;2023-05-10T07:42:56;4.90;;;1.83;;
2099;SDS011;1055;48.854;9.302;2023-05-10T07:45:22;6.50;;;2.10;;
2099;SDS011;1055;48.854;9.302;2023-05-10T07:47:48;5.73;;;1.73;;
2099;SDS011;1055;48.854;9.302;2023-05-10T07:50:15;4.70;;;1.50;;
2099;SDS011;1055;48.854;9.302;2023-05-10T07:52:49;5.17;;;1.40;;
2099;SDS011;1055;48.854;9.302;2023-05-10T07:55:15;6.50;;;1.30;;
2099;SDS011;1055;48.854;9.302;2023-05-10T07:57:43;4.43;;;1.03;;
2099;SDS011;1055;48.854;9.302;2023-05-10T08:00:08;5.20;;;1.70;;
2099;SDS011;1055;48.854;9.302;2023-05-10T08:02:37;5.10;;;1.70;;
2099;SDS011;1055;48.854;9.302;2023-05-10T08:05:03;5.50;;;1.73;;
2099;SDS011;1055;48.854;9.302;2023-05-10T08:07:30;4.77;;;1.40;;
2099;SDS011;1055;48.854;9.302;2023-05-10T08:09:56;4.90;;;1.50;;
2099;SDS011;1055;48.854;9.302;2023-05-10T08:12:21;5.33;;;1.70;;
2099;SDS011;1055;48.854;9.302;2023-05-10T08:14:47;5.40;;;1.33;;
2099;SDS011;1055;48.854;9.302;2023-05-10T08:17:12;6.33;;;1.60;;
2099;SDS011;1055;48.854;9.302;2023-05-10T08:19:38;4.97;;;1.40;;
2099;SDS011;1055;48.854;9.302;2023-05-10T08:22:04;5.10;;;1.30;;
2099;SDS011;1055;48.854;9.302;2023-05-10T08:24:30;5.80;;;1.20;;
2099;SDS011;1055;48.854;9.302;2023-05-10T08:26:56;4.60;;;1.20;;
2099;SDS011;1055;48.854;9.302;2023-05-10T08:29:22;4.57;;;1.27;;
2099;SDS011;1055;48.854;9.302;2023-05-10T08:31:48;4.80;;;1.03;;
2099;SDS011;1055;48.854;9.302;2023-05-10T08:34:13;4.40;;;0.90;;
2099;SDS011;1055;48.854;9.302;2023-05-10T08:36:39;7.07;;;1.30;;
2099;SDS011;1055;48.854;9.302;2023-05-10T08:39:05;4.60;;;1.10;;
2099;SDS011;1055;48.854;9.302;2023-05-10T08:41:31;5.10;;;1.57;;
2099;SDS011;1055;48.854;9.302;2023-05-10T08:43:58;4.80;;;1.10;;
2099;SDS011;1055;48.854;9.302;2023-05-10T08:46:29;4.47;;;1.03;;
2099;SDS011;1055;48.854;9.302;2023-05-10T08:48:55;4.40;;;1.10;;
2099;SDS011;1055;48.854;9.302;2023-05-10T08:51:26;4.50;;;1.00;;
2099;SDS011;1055;48.854;9.302;2023-05-10T08:53:55;4.40;;;1.03;;
2099;SDS011;1055;48.854;9.302;2023-05-10T08:56:21;4.43;;;1.20;;
2099;SDS011;1055;48.854;9.302;2023-05-10T08:58:49;5.50;;;2.33;;
2099;SDS011;1055;48.854;9.302;2023-05-10T09:01:16;5.70;;;1.17;;
2099;SDS011;1055;48.854;9.302;2023-05-10T09:03:43;5.20;;;0.93;;
2099;SDS011;1055;48.854;9.302;2023-05-10T09:06:11;4.20;;;1.00;;
2099;SDS011;1055;48.854;9.302;2023-05-10T09:08:38;4.70;;;0.77;;
2099;SDS011;1055;48.854;9.302;2023-05-10T09:11:06;8.37;;;1.53;;
2099;SDS011;1055;48.854;9.302;2023-05-10T09:13:33;4.40;;;1.00;;
2099;SDS011;1055;48.854;9.302;2023-05-10T09:16:00;4.20;;;0.97;;
2099;SDS011;1055;48.854;9.302;2023-05-10T09:18:27;4.00;;;0.90;;
2099;SDS011;1055;48.854;9.302;2023-05-10T09:20:53;4.10;;;0.90;;
2099;SDS011;1055;48.854;9.302;2023-05-10T09:23:19;4.87;;;1.00;;
2099;SDS011;1055;48.854;9.302;2023-05-10T09:25:45;5.37;;;0.80;;
2099;SDS011;1055;48.854;9.302;2023-05-10T09:28:11;8.73;;;1.30;;
2099;SDS011;1055;48.854;9.302;2023-05-10T09:30:37;4.07;;;0.97;;
2099;SDS011;1055;48.854;9.302;2023-05-10T09:33:02;5.60;;;0.90;;
2099;SDS011;1055;48.854;9.302;2023-05-10T09:35:30;4.40;;;0.90;;
2099;SDS011;1055;48.854;9.302;2023-05-10T09:37:58;4.47;;;1.00;;
2099;SDS011;1055;48.854;9.302;2023-05-10T09:40:27;4.70;;;1.00;;
2099;SDS011;1055;48.854;9.302;2023-05-10T09:42:59;4.80;;;1.00;;
2099;SDS011;1055;48.854;9.302;2023-05-10T09:45:34;5.57;;;1.40;;
2099;SDS011;1055;48.854;9.302;2023-05-10T09:48:01;5.10;;;1.07;;
2099;SDS011;1055;48.854;9.302;2023-05-10T09:50:27;16.40;;;3.20;;
2099;SDS011;1055;48.854;9.302;2023-05-10T09:53:00;4.20;;;0.90;;
2099;SDS011;1055;48.854;9.302;2023-05-10T09:58:03;6.60;;;1.80;;
2099;SDS011;1055;48.854;9.302;2023-05-10T10:00:35;11.30;;;2.17;;
2099;SDS011;1055;48.854;9.302;2023-05-10T10:03:05;5.07;;;1.90;;
2099;SDS011;1055;48.854;9.302;2023-05-10T10:05:32;4.30;;;1.00;;
2099;SDS011;1055;48.854;9.302;2023-05-10T10:07:59;5.70;;;1.23;;
2099;SDS011;1055;48.854;9.302;2023-05-10T10:10:27;4.93;;;1.20;;
2099;SDS011;1055;48.854;9.302;2023-05-10T10:12:53;5.37;;;1.10;;
2099;SDS011;1055;48.854;9.302;2023-05-10T10:15:23;5.87;;;0.93;;
2099;SDS011;1055;48.854;9.302;2023-05-10T10:17:50;3.97;;;0.60;;
2099;SDS011;1055;48.854;9.302;2023-05-10T10:20:16;4.77;;;0.97;;
2099;SDS011;1055;48.854;9.302;2023-05-10T10:22:43;5.47;;;1.23;;
2099;SDS011;1055;48.854;9.302;2023-05-10T10:25:12;5.23;;;1.00;;
2099;SDS011;1055;48.854;9.302;2023-05-10T10:33:28;4.30;;;1.03;;
2099;SDS011;1055;48.854;9.302;2023-05-10T10:35:58;4.40;;;1.00;;
2099;SDS011;1055;48.854;9.302;2023-05-10T10:38:25;4.80;;;1.47;;
2099;SDS011;1055;48.854;9.302;2023-05-10T10:41:10;4.97;;;1.00;;
2099;SDS011;1055;48.854;9.302;2023-05-10T10:49:37;4.37;;;1.00;;
2099;SDS011;1055;48.854;9.302;2023-05-10T10:54:52;4.30;;;0.87;;
2099;SDS011;1055;48.854;9.302;2023-05-10T10:57:22;5.73;;;1.03;;
2099;SDS011;1055;48.854;9.302;2023-05-10T10:59:48;4.93;;;1.00;;
2099;SDS011;1055;48.854;9.302;2023-05-10T11:02:33;4.10;;;0.93;;
2099;SDS011;1055;48.854;9.302;2023-05-10T11:10:49;4.10;;;0.80;;
2099;SDS011;1055;48.854;9.302;2023-05-10T11:13:28;3.93;;;0.77;;
2099;SDS011;1055;48.854;9.302;2023-05-10T11:15:55;5.13;;;1.37;;
2099;SDS011;1055;48.854;9.302;2023-05-10T11:18:26;4.00;;;0.80;;
2099;SDS011;1055;48.854;9.302;2023-05-10T11:20:57;5.00;;;1.10;;
2099;SDS011;1055;48.854;9.302;2023-05-10T11:24:12;4.03;;;0.90;;
2099;SDS011;1055;48.854;9.302;2023-05-10T11:26:34;4.67;;;0.70;;
2099;SDS011;1055;48.854;9.302;2023-05-10T11:29:00;4.20;;;1.03;;
2099;SDS011;1055;48.854;9.302;2023-05-10T11:31:27;5.27;;;1.10;;
2099;SDS011;1055;48.854;9.302;2023-05-10T11:33:54;4.50;;;1.13;;
2099;SDS011;1055;48.854;9.302;2023-05-10T11:36:22;5.20;;;1.27;;
2099;SDS011;1055;48.854;9.302;2023-05-10T11:38:50;5.37;;;1.37;;
2099;SDS011;1055;48.854;9.302;2023-05-10T11:41:17;5.57;;;1.10;;
2099;SDS011;1055;48.854;9.302;2023-05-10T11:43:47;5.37;;;1.40;;
2099;SDS011;1055;48.854;9.302;2023-05-10T11:46:14;5.97;;;1.20;;
2099;SDS011;1055;48.854;9.302;2023-05-10T11:48:41;4.40;;;1.00;;
2099;SDS011;1055;48.854;9.302;2023-05-10T11:51:08;4.30;;;0.97;;
2099;SDS011;1055;48.854;9.302;2023-05-10T11:53:34;5.73;;;1.20;;
2099;SDS011;1055;48.854;9.302;2023-05-10T11:56:05;5.60;;;1.07;;
2099;SDS011;1055;48.854;9.302;2023-05-10T11:58:32;4.40;;;0.90;;
2099;SDS011;1055;48.854;9.302;2023-05-10T12:00:58;4.83;;;1.17;;
2099;SDS011;1055;48.854;9.302;2023-05-10T12:03:25;5.20;;;1.30;;
2099;SDS011;1055;48.854;9.302;2023-05-10T12:05:51;6.37;;;1.60;;
2099;SDS011;1055;48.854;9.302;2023-05-10T12:08:25;5.03;;;1.70;;
2099;SDS011;1055;48.854;9.302;2023-05-10T12:10:54;4.53;;;1.37;;
2099;SDS011;1055;48.854;9.302;2023-05-10T12:13:36;6.00;;;1.70;;
2099;SDS011;1055;48.854;9.302;2023-05-10T12:16:25;5.40;;;1.50;;
2099;SDS011;1055;48.854;9.302;2023-05-10T12:18:51;6.30;;;1.87;;
2099;SDS011;1055;48.854;9.302;2023-05-10T12:21:18;6.60;;;1.60;;
2099;SDS011;1055;48.854;9.302;2023-05-10T12:23:46;7.40;;;1.87;;
2099;SDS011;1055;48.854;9.302;2023-05-10T12:26:13;11.07;;;2.87;;
2099;SDS011;1055;48.854;9.302;2023-05-10T12:28:39;5.80;;;1.87;;
2099;SDS011;1055;48.854;9.302;2023-05-10T12:31:05;5.03;;;1.77;;
2099;SDS011;1055;48.854;9.302;2023-05-10T12:33:43;6.50;;;1.77;;
2099;SDS011;1055;48.854;9.302;2023-05-10T12:36:10;5.50;;;1.60;;
2099;SDS011;1055;48.854;9.302;2023-05-10T12:38:38;4.50;;;1.17;;
2099;SDS011;1055;48.854;9.302;2023-05-10T12:41:08;4.37;;;1.37;;
2099;SDS011;1055;48.854;9.302;2023-05-10T12:43:35;4.43;;;1.10;;
2099;SDS011;1055;48.854;9.302;2023-05-10T12:46:07;6.17;;;2.27;;
2099;SDS011;1055;48.854;9.302;2023-05-10T12:48:38;5.57;;;1.10;;
2099;SDS011;1055;48.854;9.302;2023-05-10T12:51:04;6.03;;;1.40;;
2099;SDS011;1055;48.854;9.302;2023-05-10T12:53:34;4.90;;;1.30;;
2099;SDS011;1055;48.854;9.302;2023-05-10T12:56:00;5.10;;;1.30;;
2099;SDS011;1055;48.854;9.302;2023-05-10T12:58:26;5.60;;;2.37;;
2099;SDS011;1055;48.854;9.302;2023-05-10T13:00:51;5.83;;;1.30;;
2099;SDS011;1055;48.854;9.302;2023-05-10T13:03:18;9.40;;;1.67;;
2099;SDS011;1055;48.854;9.302;2023-05-10T13:05:43;6.67;;;1.20;;
2099;SDS011;1055;48.854;9.302;2023-05-10T13:08:09;5.13;;;1.20;;
2099;SDS011;1055;48.854;9.302;2023-05-10T13:10:35;5.43;;;1.33;;
2099;SDS011;1055;48.854;9.302;2023-05-10T13:13:00;4.30;;;1.10;;
2099;SDS011;1055;48.854;9.302;2023-05-10T13:15:26;4.43;;;1.20;;
2099;SDS011;1055;48.854;9.302;2023-05-10T13:17:53;5.43;;;1.30;;
2099;SDS011;1055;48.854;9.302;2023-05-10T13:20:18;4.70;;;1.20;;
2099;SDS011;1055;48.854;9.302;2023-05-10T13:22:44;4.77;;;1.60;;
2099;SDS011;1055;48.854;9.302;2023-05-10T13:25:10;4.37;;;1.20;;
2099;SDS011;1055;48.854;9.302;2023-05-10T13:27:39;5.43;;;1.23;;
2099;SDS011;1055;48.854;9.302;2023-05-10T13:30:06;6.20;;;1.90;;
2099;SDS011;1055;48.854;9.302;2023-05-10T13:32:32;7.43;;;1.90;;
2099;SDS011;1055;48.854;9.302;2023-05-10T13:34:58;6.40;;;1.60;;
2099;SDS011;1055;48.854;9.302;2023-05-10T13:37:24;5.97;;;2.00;;
2099;SDS011;1055;48.854;9.302;2023-05-10T13:39:50;6.40;;;2.33;;
2099;SDS011;1055;48.854;9.302;2023-05-10T13:42:16;6.57;;;1.60;;
2099;SDS011;1055;48.854;9.302;2023-05-10T13:44:42;4.93;;;1.53;;
2099;SDS011;1055;48.854;9.302;2023-05-10T13:47:08;5.37;;;1.50;;
2099;SDS011;1055;48.854;9.302;2023-05-10T13:49:34;5.50;;;1.73;;
2099;SDS011;1055;48.854;9.302;2023-05-10T13:51:59;5.13;;;1.40;;
2099;SDS011;1055;48.854;9.302;2023-05-10T13:54:31;4.50;;;1.30;;
2099;SDS011;1055;48.854;9.302;2023-05-10T13:57:00;6.57;;;1.37;;
2099;SDS011;1055;48.854;9.302;2023-05-10T13:59:26;5.27;;;1.50;;
2099;SDS011;1055;48.854;9.302;2023-05-10T14:01:53;4.60;;;1.50;;
2099;SDS011;1055;48.854;9.302;2023-05-10T14:04:19;5.27;;;1.37;;
2099;SDS011;1055;48.854;9.302;2023-05-10T14:06:46;4.67;;;1.20;;
2099;SDS011;1055;48.854;9.302;2023-05-10T14:09:12;6.50;;;2.13;;
2099;SDS011;1055;48.854;9.302;2023-05-10T14:11:44;5.27;;;1.30;;
2099;SDS011;1055;48.854;9.302;2023-05-10T14:14:12;4.63;;;1.40;;
2099;SDS011;1055;48.854;9.302;2023-05-10T14:16:43;6.73;;;1.40;;
2099;SDS011;1055;48.854;9.302;2023-05-10T14:19:14;5.00;;;1.70;;
2099;SDS011;1055;48.854;9.302;2023-05-10T14:21:40;5.60;;;1.67;;
2099;SDS011;1055;48.854;9.302;2023-05-10T14:24:06;4.80;;;1.40;;
2099;SDS011;1055;48.854;9.302;2023-05-10T14:26:32;5.30;;;1.50;;
2099;SDS011;1055;48.854;9.302;2023-05-10T14:28:59;5.80;;;1.53;;
2099;SDS011;1055;48.854;9.302;2023-05-10T14:31:25;5.00;;;1.40;;
2099;SDS011;1055;48.854;9.302;2023-05-10T14:33:50;5.97;;;1.90;;
2099;SDS011;1055;48.854;9.302;2023-05-10T14:36:16;5.90;;;1.50;;
2099;SDS011;1055;48.854;9.302;2023-05-10T14:38:42;5.27;;;1.40;;
2099;SDS011;1055;48.854;9.302;2023-05-10T14:41:08;4.40;;;1.60;;
2099;SDS011;1055;48.854;9.302;2023-05-10T14:43:33;5.73;;;1.57;;
2099;SDS011;1055;48.854;9.302;2023-05-10T14:46:00;4.70;;;1.20;;
2099;SDS011;1055;48.854;9.302;2023-05-10T14:48:25;4.77;;;1.27;;
2099;SDS011;1055;48.854;9.302;2023-05-10T14:50:51;5.00;;;1.33;;
2099;SDS011;1055;48.854;9.302;2023-05-10T14:53:17;4.73;;;1.40;;
2099;SDS011;1055;48.854;9.302;2023-05-10T14:55:43;4.30;;;1.27;;
2099;SDS011;1055;48.854;9.302;2023-05-10T14:58:08;4.13;;;1.00;;
2099;SDS011;1055;48.854;9.302;2023-05-10T15:00:34;4.40;;;1.30;;
2099;SDS011;1055;48.854;9.302;2023-05-10T15:03:00;4.97;;;1.37;;
2099;SDS011;1055;48.854;9.302;2023-05-10T15:05:26;6.60;;;1.60;;
2099;SDS011;1055;48.854;9.302;2023-05-10T15:07:51;5.47;;;1.73;;
2099;SDS011;1055;48.854;9.302;2023-05-10T15:10:17;4.80;;;1.30;;
2099;SDS011;1055;48.854;9.302;2023-05-10T15:12:43;5.67;;;1.47;;
2099;SDS011;1055;48.854;9.302;2023-05-10T15:15:09;5.43;;;1.47;;
2099;SDS011;1055;48.854;9.302;2023-05-10T15:17:34;8.33;;;1.30;;
2099;SDS011;1055;48.854;9.302;2023-05-10T15:20:00;4.70;;;1.30;;
2099;SDS011;1055;48.854;9.302;2023-05-10T15:22:28;6.07;;;1.47;;
2099;SDS011;1055;48.854;9.302;2023-05-10T15:24:55;5.57;;;1.40;;
2099;SDS011;1055;48.854;9.302;2023-05-10T15:27:20;8.10;;;1.80;;
2099;SDS011;1055;48.854;9.302;2023-05-10T15:29:46;4.47;;;1.30;;
2099;SDS011;1055;48.854;9.302;2023-05-10T15:32:12;4.50;;;1.50;;
2099;SDS011;1055;48.854;9.302;2023-05-10T15:34:37;4.67;;;1.23;;
2099;SDS011;1055;48.854;9.302;2023-05-10T15:37:03;4.70;;;1.40;;
2099;SDS011;1055;48.854;9.302;2023-05-10T15:39:28;5.00;;;1.10;;
2099;SDS011;1055;48.854;9.302;2023-05-10T15:41:54;4.60;;;1.30;;
2099;SDS011;1055;48.854;9.302;2023-05-10T15:44:20;5.43;;;1.50;;
2099;SDS011;1055;48.854;9.302;2023-05-10T15:46:45;4.27;;;1.10;;
2099;SDS011;1055;48.854;9.302;2023-05-10T15:49:11;4.80;;;1.50;;
2099;SDS011;1055;48.854;9.302;2023-05-10T15:51:37;5.57;;;1.30;;
2099;SDS011;1055;48.854;9.302;2023-05-10T15:54:02;4.30;;;1.20;;
2099;SDS011;1055;48.854;9.302;2023-05-10T15:56:31;4.67;;;1.23;;